Global Enterprise — 3FCJ6 — position and weather

sailwx.info

Track history (hours):
 
Tides and Currents Weather Stations Pressure Air Temp Water Temp Dewpoint Dewpoint Depression Visibility Wind Speed Wind Dir Waves Ship Positions

Global Enterprise

Last reported at 2016-Mar-16 02:28 UTC. Time now 2016-May-03 22:03 UTC.
Position S 20°47' E 057°47'.
Warning: this ship's position is 48 days out of date.

Length 290 m; draft 11 m.

Type: Ship. MMSI: 356308000.

Date/timePositionNaut miles runAvg speedWind from/ knotsBaromVisibWave heightAir tempDewpointWater temp
2016-Mar-16 02:28S 20°47' E 057°47'1314.1
2016-Mar-16 01:33S 20°40' E 057°59'  
2016-Mar-06 21:05N 01°59' E 102°12'813.0
2016-Mar-06 20:26N 01°55' E 102°19'1213.7
2016-Mar-06 19:33N 01°49' E 102°30'1514.7
2016-Mar-06 18:33N 01°43' E 102°43'1614.4
2016-Mar-06 17:28N 01°38' E 102°58'5711.2
2016-Mar-06 12:24N 01°11' E 103°48'1012.4
2016-Mar-06 11:34N 01°15' E 103°58'  
Track history (hours):
 
Tides and Currents Weather Stations Pressure Air Temp Water Temp Dewpoint Dewpoint Depression Visibility Wind Speed Wind Dir Waves Ship Positions

Global Enterprise

Last reported at 2016-Mar-16 02:28 UTC. Time now 2016-May-03 22:03 UTC.
Position S 20°47' E 057°47'.
Warning: this ship's position is 48 days out of date.

Length 290 m; draft 11 m.

Type: Ship. MMSI: 356308000.

Date/timePositionNaut miles runAvg speedWind from/ knotsBaromVisibWave heightAir tempDewpointWater temp
2016-Mar-16 02:28S 20°47' E 057°47'1314.1
2016-Mar-16 01:33S 20°40' E 057°59'  
2016-Mar-06 21:05N 01°59' E 102°12'813.0
2016-Mar-06 20:26N 01°55' E 102°19'1213.7
2016-Mar-06 19:33N 01°49' E 102°30'1514.7
2016-Mar-06 18:33N 01°43' E 102°43'1614.4
2016-Mar-06 17:28N 01°38' E 102°58'5711.2
2016-Mar-06 12:24N 01°11' E 103°48'1012.4
2016-Mar-06 11:34N 01°15' E 103°58'  

Dump ship's entire track history